Time;durP1;ratioP1;P1;durP2;ratioP2;P2;SDS_P1;SDS_P2;PMS_P1;PMS_P2;Temp;Humidity;BMP_temperature;BMP_pressure;BME280_temperature;BME280_humidity;BME280_pressure;Samples;Min_cycle;Max_cycle;Signal;HPM_P1;HPM_P2
2021/08/13 00:01:35;;;;;;;1999.90;999.90;;;;;;;17.54;77.07;96199.22;5112027;28;20678;-65
2021/08/13 00:04:02;;;;;;;1999.90;999.90;;;;;;;17.41;77.78;96195.00;5105282;28;20306;-65
2021/08/13 00:06:29;;;;;;;1999.90;999.90;;;;;;;17.35;78.16;96191.00;5106421;28;20667;-65
2021/08/13 00:08:56;;;;;;;1999.90;999.90;;;;;;;17.33;78.31;96201.88;5111120;28;20199;-64
2021/08/13 00:11:25;;;;;;;1999.90;999.90;;;;;;;17.34;78.48;96199.97;5111701;28;20199;-65
2021/08/13 00:13:52;;;;;;;1999.90;999.90;;;;;;;17.37;78.10;96196.72;5111669;28;20191;-65
2021/08/13 00:16:19;;;;;;;1999.90;999.90;;;;;;;17.49;76.28;96191.53;5111558;28;20203;-66
2021/08/13 00:18:46;;;;;;;1999.90;999.90;;;;;;;17.41;76.32;96195.78;5111766;28;20238;-65
2021/08/13 00:21:14;;;;;;;1999.90;999.90;;;;;;;17.37;76.22;96205.38;5111494;28;20203;-64
2021/08/13 00:23:41;;;;;;;1999.90;999.90;;;;;;;17.26;77.17;96201.59;5111496;28;20283;-63
2021/08/13 00:26:08;;;;;;;1999.90;999.90;;;;;;;17.23;77.35;96200.34;5111621;28;20227;-63
2021/08/13 00:28:36;;;;;;;1999.90;999.90;;;;;;;17.05;78.14;96204.16;5111449;28;20206;-63
2021/08/13 00:31:03;;;;;;;1999.90;999.90;;;;;;;17.06;78.47;96205.72;5111335;28;20202;-64
2021/08/13 00:33:30;;;;;;;1999.90;999.90;;;;;;;16.90;79.04;96194.19;5111182;28;20199;-64
2021/08/13 00:35:57;;;;;;;1999.90;999.90;;;;;;;16.92;79.03;96193.88;5111381;28;20245;-64
2021/08/13 00:38:25;;;;;;;1999.90;999.90;;;;;;;16.76;79.65;96204.91;5111505;28;20563;-65
2021/08/13 00:40:52;;;;;;;1999.90;999.90;;;;;;;16.75;80.07;96205.22;5111092;28;20235;-64
2021/08/13 00:43:19;;;;;;;1999.90;999.90;;;;;;;16.81;79.79;96203.97;5111460;28;20233;-64
2021/08/13 00:45:47;;;;;;;1999.90;999.90;;;;;;;16.75;80.30;96199.97;5110985;28;20230;-63
2021/08/13 00:48:15;;;;;;;1999.90;999.90;;;;;;;16.85;80.36;96201.47;5326697;22;20199;-70
2021/08/13 00:50:42;;;;;;;1999.90;999.90;;;;;;;16.99;78.12;96200.16;4973917;28;20232;-71
2021/08/13 00:53:10;;;;;;;1999.90;999.90;;;;;;;17.10;77.24;96201.34;4982758;28;20690;-72
2021/08/13 00:55:37;;;;;;;1999.90;999.90;;;;;;;17.11;77.10;96205.53;4968795;28;20199;-71
2021/08/13 00:58:06;;;;;;;1999.90;999.90;;;;;;;17.15;77.45;96198.53;4968448;28;20945;-71
2021/08/13 01:00:34;;;;;;;1999.90;999.90;;;;;;;17.28;75.58;96193.41;4968619;28;20204;-71
2021/08/13 01:03:02;;;;;;;1999.90;999.90;;;;;;;17.29;76.30;96210.66;4968743;28;20200;-71
2021/08/13 01:05:29;;;;;;;1999.90;999.90;;;;;;;17.15;76.50;96209.06;4968353;28;20238;-71
2021/08/13 01:07:56;;;;;;;1999.90;999.90;;;;;;;17.14;76.72;96210.13;4968573;28;20210;-70
2021/08/13 01:10:24;;;;;;;1999.90;999.90;;;;;;;17.09;76.90;96210.31;4983418;28;20286;-71
2021/08/13 01:13:00;;;;;;;1999.90;999.90;;;;;;;17.04;77.64;96213.13;4987772;28;20207;-70
2021/08/13 01:15:32;;;;;;;1999.90;999.90;;;;;;;17.01;77.05;96215.63;4987806;28;20187;-67
2021/08/13 01:18:06;;;;;;;1999.90;999.90;;;;;;;17.18;76.21;96228.69;4996356;28;20641;-70
2021/08/13 01:21:12;;;;;;;1999.90;999.90;;;;;;;17.35;75.26;96222.53;4988092;28;20203;-71
2021/08/13 01:23:46;;;;;;;1999.90;999.90;;;;;;;17.43;75.32;96216.47;4984626;28;20572;-69
2021/08/13 01:26:14;;;;;;;1999.90;999.90;;;;;;;17.33;75.43;96224.75;4980937;28;20227;-70
2021/08/13 01:28:55;;;;;;;1999.90;999.90;;;;;;;17.23;76.19;96216.09;4967981;28;20846;-71
2021/08/13 01:31:25;;;;;;;1999.90;999.90;;;;;;;17.30;75.86;96206.97;4977903;28;20195;-68
2021/08/13 01:33:58;;;;;;;1999.90;999.90;;;;;;;17.27;75.74;96205.75;4967441;28;20206;-70
2021/08/13 01:36:28;;;;;;;1999.90;999.90;;;;;;;17.18;76.51;96211.03;4977319;28;20211;-70
2021/08/13 01:39:00;;;;;;;1999.90;999.90;;;;;;;17.18;76.88;96212.91;4987199;28;20195;-70
2021/08/13 01:41:29;;;;;;;1999.90;999.90;;;;;;;17.17;77.00;96204.25;4987530;28;20184;-70
2021/08/13 01:43:56;;;;;;;1999.90;999.90;;;;;;;17.13;77.58;96211.25;4987341;28;20204;-70
2021/08/13 01:46:23;;;;;;;1999.90;999.90;;;;;;;17.10;77.47;96209.22;4978670;28;20239;-70
2021/08/13 01:48:51;;;;;;;1999.90;999.90;;;;;;;16.95;78.17;96209.75;4969986;28;20231;-70
2021/08/13 01:51:20;;;;;;;1999.90;999.90;;;;;;;16.89;78.15;96211.03;4967794;28;20208;-70
2021/08/13 01:53:48;;;;;;;1999.90;999.90;;;;;;;16.78;78.71;96208.00;4967940;28;20220;-70
2021/08/13 01:56:17;;;;;;;1999.90;999.90;;;;;;;16.73;79.40;96208.16;4967996;28;20192;-72
2021/08/13 01:58:45;;;;;;;1999.90;999.90;;;;;;;16.77;79.17;96206.47;4967830;28;20212;-72
2021/08/13 02:01:13;;;;;;;1999.90;999.90;;;;;;;16.64;80.05;96206.63;4978853;28;21072;-71
2021/08/13 02:03:42;;;;;;;1999.90;999.90;;;;;;;16.68;78.97;96197.84;4991529;28;20269;-72
2021/08/13 02:06:10;;;;;;;1999.90;999.90;;;;;;;16.61;79.35;96197.56;4984984;28;20810;-71
2021/08/13 02:08:39;;;;;;;1999.90;999.90;;;;;;;16.61;79.44;96207.28;4986846;28;20214;-70
2021/08/13 02:11:08;;;;;;;1999.90;999.90;;;;;;;16.54;79.48;96209.56;4986132;28;20231;-71
2021/08/13 02:13:37;;;;;;;1999.90;999.90;;;;;;;16.32;80.50;96206.09;4986866;28;20214;-72
2021/08/13 02:16:10;;;;;;;1999.90;999.90;;;;;;;16.12;81.12;96209.34;4986932;28;20299;-72
2021/08/13 02:18:40;;;;;;;1999.90;999.90;;;;;;;16.01;80.93;96218.63;4987155;28;20244;-72
2021/08/13 02:21:12;;;;;;;1999.90;999.90;;;;;;;15.96;81.02;96216.16;4986580;28;20259;-72
2021/08/13 02:23:40;;;;;;;1999.90;999.90;;;;;;;16.06;80.84;96210.59;4986768;28;20244;-73
2021/08/13 02:26:08;;;;;;;1999.90;999.90;;;;;;;16.21;81.17;96204.88;4986425;28;20235;-73
2021/08/13 02:28:35;;;;;;;1999.90;999.90;;;;;;;16.30;80.20;96207.47;4986841;28;20235;-72
2021/08/13 02:31:02;;;;;;;1999.90;999.90;;;;;;;16.30;80.10;96205.63;4986104;28;20203;-72
2021/08/13 02:33:30;;;;;;;1999.90;999.90;;;;;;;16.40;79.49;96219.47;4986558;28;20207;-71
2021/08/13 02:36:06;;;;;;;1999.90;999.90;;;;;;;16.41;79.75;96221.03;4983241;28;20588;-71
2021/08/13 02:38:40;;;;;;;1999.90;999.90;;;;;;;16.51;78.51;96226.72;4975379;28;20202;-70
2021/08/13 02:41:09;;;;;;;1999.90;999.90;;;;;;;16.41;79.94;96228.91;4984102;28;20596;-70
2021/08/13 02:43:41;;;;;;;1999.90;999.90;;;;;;;16.35;80.17;96230.91;4981728;28;20271;-72
2021/08/13 02:46:12;;;;;;;1999.90;999.90;;;;;;;16.26;80.53;96225.69;4982579;28;20219;-71
2021/08/13 02:48:42;;;;;;;1999.90;999.90;;;;;;;16.22;80.56;96230.03;4979673;28;20319;-72
2021/08/13 02:51:11;;;;;;;1999.90;999.90;;;;;;;16.19;80.70;96228.00;4984551;28;20580;-72
2021/08/13 02:53:40;;;;;;;1999.90;999.90;;;;;;;16.07;80.96;96227.88;4975350;28;20750;-71
2021/08/13 02:56:12;;;;;;;1999.90;999.90;;;;;;;16.08;80.87;96232.03;4985868;28;20206;-72
2021/08/13 02:58:43;;;;;;;1999.90;999.90;;;;;;;16.06;81.54;96231.56;4985951;28;20207;-71
2021/08/13 03:01:13;;;;;;;1999.90;999.90;;;;;;;16.18;79.72;96221.22;4986078;28;20199;-67
2021/08/13 03:03:42;;;;;;;1999.90;999.90;;;;;;;16.52;77.95;96225.66;4985898;28;20199;-70
2021/08/13 03:06:12;;;;;;;1999.90;999.90;;;;;;;16.68;76.83;96225.94;4985897;28;20226;-71
2021/08/13 03:08:40;;;;;;;1999.90;999.90;;;;;;;16.75;76.34;96220.97;4985457;28;20588;-71
2021/08/13 03:11:11;;;;;;;1999.90;999.90;;;;;;;16.78;75.75;96226.38;4982027;28;21022;-69
2021/08/13 03:13:39;;;;;;;1999.90;999.90;;;;;;;16.85;75.74;96236.38;4978079;28;20605;-71
2021/08/13 03:16:08;;;;;;;1999.90;999.90;;;;;;;16.91;75.74;96235.13;4975868;28;20200;-71
2021/08/13 03:18:36;;;;;;;1999.90;999.90;;;;;;;16.83;75.96;96243.03;4977102;28;20223;-69
2021/08/13 03:21:03;;;;;;;1999.90;999.90;;;;;;;16.81;76.01;96240.72;4982876;28;20203;-69
2021/08/13 03:23:31;;;;;;;1999.90;999.90;;;;;;;16.67;76.49;96243.53;4975371;28;20253;-70
2021/08/13 03:25:58;;;;;;;1999.90;999.90;;;;;;;16.71;76.40;96241.06;4978212;28;20231;-71
2021/08/13 03:28:27;;;;;;;1999.90;999.90;;;;;;;16.66;76.47;96249.09;4980043;28;20633;-70
2021/08/13 03:30:54;;;;;;;1999.90;999.90;;;;;;;16.65;76.14;96247.56;4985429;28;20231;-69
2021/08/13 03:33:21;;;;;;;1999.90;999.90;;;;;;;16.65;76.14;96244.94;4972914;28;20207;-70
2021/08/13 03:35:50;;;;;;;1999.90;999.90;;;;;;;16.49;76.81;96239.38;4983528;28;21015;-69
2021/08/13 03:38:17;;;;;;;1999.90;999.90;;;;;;;16.47;77.19;96243.41;4987819;28;20207;-71
2021/08/13 03:40:44;;;;;;;1999.90;999.90;;;;;;;16.50;77.14;96237.53;4978895;28;20257;-70
2021/08/13 03:43:11;;;;;;;1999.90;999.90;;;;;;;16.58;76.78;96249.88;4979515;28;20264;-70
2021/08/13 03:45:39;;;;;;;1999.90;999.90;;;;;;;16.51;77.16;96255.59;5026258;28;20281;-71
2021/08/13 03:48:06;;;;;;;1999.90;999.90;;;;;;;16.56;76.84;96250.19;4977823;28;20226;-70
2021/08/13 03:50:34;;;;;;;1999.90;999.90;;;;;;;16.55;76.94;96263.59;4986788;28;20207;-70
2021/08/13 03:53:01;;;;;;;1999.90;999.90;;;;;;;16.64;76.87;96261.75;4979271;28;20284;-70
2021/08/13 03:55:28;;;;;;;1999.90;999.90;;;;;;;16.65;76.74;96271.94;4976915;28;20277;-71
2021/08/13 03:57:55;;;;;;;1999.90;999.90;;;;;;;16.60;77.14;96266.09;4985908;28;20564;-70
2021/08/13 04:00:22;;;;;;;1999.90;999.90;;;;;;;16.63;77.50;96261.00;4988626;28;20276;-70
2021/08/13 04:02:50;;;;;;;1999.90;999.90;;;;;;;16.76;76.06;96261.88;4987154;28;20256;-70
2021/08/13 04:05:17;;;;;;;1999.90;999.90;;;;;;;16.93;74.77;96253.97;4986776;28;20231;-70
2021/08/13 04:07:44;;;;;;;1999.90;999.90;;;;;;;16.99;74.39;96252.69;4987214;28;20227;-70
2021/08/13 04:10:12;;;;;;;1999.90;999.90;;;;;;;17.16;73.72;96257.09;4987234;28;20230;-69
2021/08/13 04:12:39;;;;;;;1999.90;999.90;;;;;;;17.35;73.48;96251.44;4986820;28;20272;-70
2021/08/13 04:15:07;;;;;;;1999.90;999.90;;;;;;;17.56;72.75;96252.25;4987680;28;20226;-70
2021/08/13 04:17:34;;;;;;;1999.90;999.90;;;;;;;17.87;73.05;96250.06;4987620;28;20203;-70
2021/08/13 04:20:03;;;;;;;1999.90;999.90;;;;;;;18.16;73.28;96256.34;4988814;28;20192;-69
2021/08/13 04:22:30;;;;;;;1999.90;999.90;;;;;;;18.48;72.16;96263.47;4989230;28;20199;-70
2021/08/13 04:24:57;;;;;;;1999.90;999.90;;;;;;;18.56;71.44;96267.94;4989136;28;20252;-70
2021/08/13 04:27:24;;;;;;;1999.90;999.90;;;;;;;18.97;70.75;96268.91;4988688;28;20223;-71
2021/08/13 04:29:51;;;;;;;1999.90;999.90;;;;;;;19.27;69.95;96268.38;4988971;28;20206;-71
2021/08/13 04:32:18;;;;;;;1999.90;999.90;;;;;;;19.58;68.92;96262.56;4988694;28;20217;-71
2021/08/13 04:34:45;;;;;;;1999.90;999.90;;;;;;;19.84;68.53;96272.72;4988929;28;20211;-70
2021/08/13 04:37:14;;;;;;;1999.90;999.90;;;;;;;20.14;67.84;96271.34;4988819;28;20207;-70
2021/08/13 04:39:41;;;;;;;1999.90;999.90;;;;;;;20.23;67.53;96273.84;4988956;28;20260;-71
2021/08/13 04:42:08;;;;;;;1999.90;999.90;;;;;;;20.32;66.57;96285.06;4988756;28;20211;-71
2021/08/13 04:44:35;;;;;;;1999.90;999.90;;;;;;;20.69;65.23;96282.25;4988599;28;20208;-71
2021/08/13 04:47:02;;;;;;;1999.90;999.90;;;;;;;20.96;63.48;96284.09;4988592;28;20223;-70
2021/08/13 04:49:30;;;;;;;1999.90;999.90;;;;;;;20.92;63.08;96293.81;4988285;28;20249;-71
2021/08/13 04:51:58;;;;;;;1999.90;999.90;;;;;;;21.03;58.48;96287.66;4988234;28;20281;-71
2021/08/13 04:54:26;;;;;;;1999.90;999.90;;;;;;;21.09;57.79;96287.41;4987624;28;20211;-71
2021/08/13 04:56:53;;;;;;;1999.90;999.90;;;;;;;21.28;57.86;96285.66;4988277;28;20206;-71
2021/08/13 04:59:20;;;;;;;1999.90;999.90;;;;;;;21.41;57.58;96278.41;4988191;28;20207;-70
2021/08/13 05:01:47;;;;;;;1999.90;999.90;;;;;;;21.51;57.01;96279.75;4988217;28;20589;-71
2021/08/13 05:04:14;;;;;;;1999.90;999.90;;;;;;;21.55;56.63;96281.38;4988556;28;20204;-71
2021/08/13 05:06:41;;;;;;;1999.90;999.90;;;;;;;21.57;56.64;96283.66;4987950;28;20255;-71
2021/08/13 05:09:08;;;;;;;1999.90;999.90;;;;;;;21.40;56.19;96293.50;4988080;28;20214;-70
2021/08/13 05:11:37;;;;;;;1999.90;999.90;;;;;;;21.39;55.74;96293.84;4987930;28;20207;-70
2021/08/13 05:14:04;;;;;;;1999.90;999.90;;;;;;;20.98;56.73;96292.44;4988340;28;20199;-71
2021/08/13 05:16:34;;;;;;;1999.90;999.90;;;;;;;20.93;57.23;96295.31;4988331;28;20883;-71
2021/08/13 05:19:01;;;;;;;1999.90;999.90;;;;;;;20.93;57.68;96288.16;4988008;28;20195;-71
2021/08/13 05:21:28;;;;;;;1999.90;999.90;;;;;;;20.84;57.80;96279.63;4988184;28;20234;-70
2021/08/13 05:23:55;;;;;;;1999.90;999.90;;;;;;;20.93;57.76;96285.53;4987856;28;20676;-70
2021/08/13 05:26:22;;;;;;;1999.90;999.90;;;;;;;20.99;57.48;96294.75;4987976;28;20227;-70
2021/08/13 05:28:51;;;;;;;1999.90;999.90;;;;;;;21.09;57.31;96285.53;4987794;28;20205;-71
2021/08/13 05:31:18;;;;;;;1999.90;999.90;;;;;;;21.18;57.16;96295.97;4987476;28;20199;-71
2021/08/13 05:33:45;;;;;;;1999.90;999.90;;;;;;;21.13;56.46;96296.97;4987492;28;20205;-72
2021/08/13 05:36:15;;;;;;;1999.90;999.90;;;;;;;21.14;56.50;96293.25;4987893;28;20210;-72
2021/08/13 05:38:42;;;;;;;1999.90;999.90;;;;;;;21.35;56.38;96292.97;4987527;28;20649;-72
2021/08/13 05:41:10;;;;;;;1999.90;999.90;;;;;;;21.65;54.95;96295.94;4987496;28;20206;-71
2021/08/13 05:43:37;;;;;;;1999.90;999.90;;;;;;;21.68;54.98;96301.31;4987445;28;20203;-70
2021/08/13 05:46:05;;;;;;;1999.90;999.90;;;;;;;21.65;57.50;96296.72;4987572;28;20223;-72
2021/08/13 05:48:32;;;;;;;1999.90;999.90;;;;;;;21.61;59.06;96290.56;4987237;28;20239;-71
2021/08/13 05:51:00;;;;;;;1999.90;999.90;;;;;;;21.64;59.25;96294.41;4987950;28;20282;-72
2021/08/13 05:53:27;;;;;;;1999.90;999.90;;;;;;;21.80;58.25;96293.25;4987681;28;20195;-71
2021/08/13 05:55:54;;;;;;;1999.90;999.90;;;;;;;22.03;58.42;96303.22;4987535;28;20203;-72
2021/08/13 05:58:21;;;;;;;1999.90;999.90;;;;;;;21.75;58.77;96300.69;4987370;28;20204;-71
2021/08/13 06:00:48;;;;;;;1999.90;999.90;;;;;;;21.77;59.12;96298.47;4987426;28;20204;-72
2021/08/13 06:03:16;;;;;;;1999.90;999.90;;;;;;;21.81;58.00;96304.63;4987200;28;20199;-72
2021/08/13 06:05:43;;;;;;;1999.90;999.90;;;;;;;21.86;58.24;96301.72;4986247;28;20206;-72
2021/08/13 06:08:10;;;;;;;1999.90;999.90;;;;;;;22.09;57.90;96299.94;4987445;28;20249;-72
2021/08/13 06:10:37;;;;;;;1999.90;999.90;;;;;;;22.20;55.59;96302.81;4987617;28;20203;-72
2021/08/13 06:13:05;;;;;;;1999.90;999.90;;;;;;;22.39;56.95;96308.13;4987396;28;20214;-72
2021/08/13 06:15:32;;;;;;;1999.90;999.90;;;;;;;22.62;56.11;96308.16;4987503;28;20214;-72
2021/08/13 06:17:59;;;;;;;1999.90;999.90;;;;;;;22.64;54.33;96303.28;4987363;28;20410;-72
2021/08/13 06:20:27;;;;;;;1999.90;999.90;;;;;;;23.02;53.04;96303.25;4987506;28;20199;-72
2021/08/13 06:22:54;;;;;;;1999.90;999.90;;;;;;;23.22;52.59;96301.28;4986957;28;20210;-72
2021/08/13 06:25:21;;;;;;;1999.90;999.90;;;;;;;23.61;50.27;96306.50;4986833;28;20199;-72
2021/08/13 06:27:49;;;;;;;1999.90;999.90;;;;;;;23.64;51.03;96306.53;4986805;28;20285;-72
2021/08/13 06:30:22;;;;;;;1999.90;999.90;;;;;;;23.54;50.30;96307.91;4986989;28;20697;-72
2021/08/13 06:32:49;;;;;;;1999.90;999.90;;;;;;;23.76;50.05;96311.63;4986903;28;20647;-72
2021/08/13 06:35:16;;;;;;;1999.90;999.90;;;;;;;23.81;50.61;96311.31;4987008;28;20236;-72
2021/08/13 06:37:46;;;;;;;1999.90;999.90;;;;;;;23.94;49.98;96307.34;4987376;28;20195;-72
2021/08/13 06:40:14;;;;;;;1999.90;999.90;;;;;;;24.06;49.01;96313.56;4987222;28;20203;-72
2021/08/13 06:42:42;;;;;;;1999.90;999.90;;;;;;;24.26;48.45;96309.69;4986605;28;20203;-72
2021/08/13 06:45:10;;;;;;;1999.90;999.90;;;;;;;24.33;47.85;96307.09;4986709;28;20199;-72
2021/08/13 06:47:38;;;;;;;1999.90;999.90;;;;;;;24.37;47.81;96316.63;4986629;28;20227;-72
2021/08/13 06:50:06;;;;;;;1999.90;999.90;;;;;;;24.64;47.15;96309.34;4986431;28;20235;-72
2021/08/13 06:52:33;;;;;;;1999.90;999.90;;;;;;;24.84;47.06;96316.03;4986680;28;20297;-72
2021/08/13 06:55:02;;;;;;;1999.90;999.90;;;;;;;24.97;46.27;96308.56;4987023;28;20297;-72
2021/08/13 06:57:29;;;;;;;1999.90;999.90;;;;;;;25.00;44.63;96320.38;4986578;28;20246;-72
2021/08/13 06:59:56;;;;;;;1999.90;999.90;;;;;;;25.03;46.62;96319.63;4986642;28;20211;-72
2021/08/13 07:02:23;;;;;;;1999.90;999.90;;;;;;;25.20;45.58;96317.16;4986647;28;20256;-73
2021/08/13 07:04:50;;;;;;;1999.90;999.90;;;;;;;25.37;45.70;96315.75;4986981;28;20207;-72
2021/08/13 07:07:17;;;;;;;1999.90;999.90;;;;;;;25.36;47.03;96322.22;4986597;28;20399;-69
2021/08/13 07:09:47;;;;;;;1999.90;999.90;;;;;;;25.37;47.53;96309.66;4986829;28;20264;-71
2021/08/13 07:12:16;;;;;;;1999.90;999.90;;;;;;;25.43;46.95;96316.94;4986443;28;20256;-71
2021/08/13 07:14:44;;;;;;;1999.90;999.90;;;;;;;25.71;46.51;96316.41;4986503;28;20211;-72
2021/08/13 07:17:11;;;;;;;1999.90;999.90;;;;;;;25.70;45.72;96309.56;4988541;28;20200;-72
2021/08/13 07:19:38;;;;;;;1999.90;999.90;;;;;;;25.89;44.98;96309.31;4989822;28;20203;-72
2021/08/13 07:22:05;;;;;;;1999.90;999.90;;;;;;;26.05;41.77;96314.34;4989709;28;20199;-73
2021/08/13 07:24:33;;;;;;;1999.90;999.90;;;;;;;25.85;42.54;96308.53;4989774;28;20699;-72
2021/08/13 07:27:00;;;;;;;1999.90;999.90;;;;;;;26.03;43.06;96312.06;4989591;28;20594;-71
2021/08/13 07:29:28;;;;;;;1999.90;999.90;;;;;;;25.97;43.72;96302.09;4989708;28;20195;-72
2021/08/13 07:31:56;;;;;;;1999.90;999.90;;;;;;;26.02;41.98;96309.75;4989165;28;20195;-72
2021/08/13 07:34:23;;;;;;;1999.90;999.90;;;;;;;26.04;41.44;96307.50;4989622;28;20215;-72
2021/08/13 07:36:50;;;;;;;1999.90;999.90;;;;;;;26.20;40.66;96304.53;4990059;28;20200;-72
2021/08/13 07:39:17;;;;;;;1999.90;999.90;;;;;;;26.37;40.64;96309.94;4989748;28;20207;-72
2021/08/13 07:41:44;;;;;;;1999.90;999.90;;;;;;;26.60;40.37;96303.56;4989611;28;20210;-72
2021/08/13 07:44:11;;;;;;;1999.90;999.90;;;;;;;26.55;39.87;96307.34;4989340;28;20199;-72
2021/08/13 07:46:40;;;;;;;1999.90;999.90;;;;;;;26.52;39.76;96300.84;4989434;28;20223;-72
2021/08/13 07:49:07;;;;;;;1999.90;999.90;;;;;;;26.64;40.41;96297.09;4989445;28;20238;-73
2021/08/13 07:51:34;;;;;;;1999.90;999.90;;;;;;;26.60;39.87;96301.63;4989282;28;20207;-72
2021/08/13 07:54:01;;;;;;;1999.90;999.90;;;;;;;26.69;39.15;96299.38;4989692;28;20230;-72
2021/08/13 07:56:28;;;;;;;1999.90;999.90;;;;;;;26.76;39.91;96299.38;4989377;28;20205;-72
2021/08/13 07:58:55;;;;;;;1999.90;999.90;;;;;;;26.91;39.00;96306.31;4989327;28;20671;-72
2021/08/13 08:01:22;;;;;;;1999.90;999.90;;;;;;;26.93;38.83;96298.69;4989083;28;20207;-72
2021/08/13 08:03:51;;;;;;;1999.90;999.90;;;;;;;26.93;39.67;96305.94;4989146;28;20207;-72
2021/08/13 08:06:19;;;;;;;1999.90;999.90;;;;;;;27.13;39.86;96309.78;4989070;28;20204;-73
2021/08/13 08:08:46;;;;;;;1999.90;999.90;;;;;;;27.29;38.93;96315.53;4988958;28;20264;-72
2021/08/13 08:11:13;;;;;;;1999.90;999.90;;;;;;;27.37;40.58;96316.28;4989271;28;20207;-72
2021/08/13 08:13:40;;;;;;;1999.90;999.90;;;;;;;27.24;40.53;96309.78;4988840;28;20199;-71
2021/08/13 08:16:07;;;;;;;1999.90;999.90;;;;;;;27.67;38.98;96315.91;4988888;28;20206;-72
2021/08/13 08:18:34;;;;;;;1999.90;999.90;;;;;;;27.87;39.18;96308.22;4988839;28;20256;-73
2021/08/13 08:21:03;;;;;;;1999.90;999.90;;;;;;;27.87;41.07;96321.59;4988844;28;20203;-73
2021/08/13 08:23:30;;;;;;;1999.90;999.90;;;;;;;27.94;40.41;96314.34;4988875;28;20195;-74
2021/08/13 08:25:57;;;;;;;1999.90;999.90;;;;;;;28.13;39.47;96303.25;4988845;28;20203;-73
2021/08/13 08:28:24;;;;;;;1999.90;999.90;;;;;;;28.34;38.20;96298.97;4988008;28;20227;-73
2021/08/13 08:30:51;;;;;;;1999.90;999.90;;;;;;;28.55;38.35;96298.84;4988695;28;20199;-73
2021/08/13 08:33:18;;;;;;;1999.90;999.90;;;;;;;28.56;39.28;96300.38;4988660;28;20196;-73
2021/08/13 08:35:45;;;;;;;1999.90;999.90;;;;;;;28.92;37.21;96299.06;4988994;28;20203;-73
2021/08/13 08:38:14;;;;;;;1999.90;999.90;;;;;;;28.69;38.71;96290.78;4988790;28;20578;-73
2021/08/13 08:40:42;;;;;;;1999.90;999.90;;;;;;;28.95;37.88;96286.78;4988637;28;20211;-72
2021/08/13 08:43:10;;;;;;;1999.90;999.90;;;;;;;29.01;36.67;96280.63;4988599;28;20659;-73
2021/08/13 08:45:39;;;;;;;1999.90;999.90;;;;;;;29.26;37.41;96285.03;4988873;28;20199;-74
2021/08/13 08:48:08;;;;;;;1999.90;999.90;;;;;;;29.60;36.33;96277.09;4988382;28;20234;-74
2021/08/13 08:50:37;;;;;;;1999.90;999.90;;;;;;;29.65;35.29;96282.03;4988406;28;20711;-73
2021/08/13 08:53:08;;;;;;;1999.90;999.90;;;;;;;29.54;34.69;96294.78;4988617;28;20203;-72
2021/08/13 08:55:38;;;;;;;1999.90;999.90;;;;;;;29.66;35.57;96284.31;4988453;28;20191;-73
2021/08/13 08:58:05;;;;;;;1999.90;999.90;;;;;;;29.75;34.76;96295.34;4988525;28;20268;-73
2021/08/13 09:00:32;;;;;;;1999.90;999.90;;;;;;;29.84;33.03;96281.47;4988530;28;20231;-73
2021/08/13 09:03:00;;;;;;;1999.90;999.90;;;;;;;29.53;35.14;96280.63;4988173;28;20207;-73
2021/08/13 09:05:27;;;;;;;1999.90;999.90;;;;;;;29.53;35.24;96283.31;4988237;28;20200;-73
2021/08/13 09:07:54;;;;;;;1999.90;999.90;;;;;;;29.68;33.16;96283.94;4988046;28;20235;-73
2021/08/13 09:10:21;;;;;;;1999.90;999.90;;;;;;;29.82;33.51;96284.56;4988533;28;20204;-73
2021/08/13 09:12:52;;;;;;;1999.90;999.90;;;;;;;29.99;33.11;96276.75;4988383;28;20629;-73
2021/08/13 09:15:27;;;;;;;1999.90;999.90;;;;;;;30.02;33.70;96275.94;4988115;28;20279;-73
2021/08/13 09:18:12;;;;;;;1999.90;999.90;;;;;;;30.29;34.13;96277.53;4988152;28;20214;-73
2021/08/13 09:20:40;;;;;;;1999.90;999.90;;;;;;;30.29;35.58;96279.44;4988421;28;20252;-72
2021/08/13 09:23:07;;;;;;;1999.90;999.90;;;;;;;30.25;35.86;96273.38;4988135;28;20683;-72
2021/08/13 09:25:34;;;;;;;1999.90;999.90;;;;;;;29.82;34.07;96268.47;4988248;28;20199;-72
2021/08/13 09:28:03;;;;;;;1999.90;999.90;;;;;;;29.95;33.18;96271.41;4988210;28;20231;-73
2021/08/13 09:30:30;;;;;;;1999.90;999.90;;;;;;;30.18;35.06;96273.47;4987919;28;20203;-72
2021/08/13 09:32:59;;;;;;;1999.90;999.90;;;;;;;30.42;33.83;96267.03;4987750;28;20211;-72
2021/08/13 09:35:32;;;;;;;1999.90;999.90;;;;;;;30.50;34.26;96270.41;4987796;28;20202;-72
2021/08/13 09:37:59;;;;;;;1999.90;999.90;;;;;;;30.50;34.08;96273.09;4988162;28;20203;-73
2021/08/13 09:40:26;;;;;;;1999.90;999.90;;;;;;;30.54;34.27;96271.88;4987252;28;20206;-72
2021/08/13 09:43:03;;;;;;;1999.90;999.90;;;;;;;30.60;32.93;96275.63;4987880;28;20221;-72
2021/08/13 09:45:30;;;;;;;1999.90;999.90;;;;;;;30.52;34.16;96276.91;4987914;28;20274;-73
2021/08/13 09:47:57;;;;;;;1999.90;999.90;;;;;;;30.50;34.91;96267.72;4987772;28;20604;-72
2021/08/13 09:50:36;;;;;;;1999.90;999.90;;;;;;;30.30;33.69;96267.56;4987252;28;20563;-73
2021/08/13 09:53:13;;;;;;;1999.90;999.90;;;;;;;30.54;34.32;96263.81;4987495;28;20200;-73
2021/08/13 09:55:41;;;;;;;1999.90;999.90;;;;;;;30.64;34.34;96257.53;4987499;28;20214;-72
2021/08/13 09:58:11;;;;;;;1999.90;999.90;;;;;;;30.79;34.43;96264.22;4987647;28;20199;-72
2021/08/13 10:00:46;;;;;;;1999.90;999.90;;;;;;;30.93;34.34;96260.59;4987564;28;20204;-72
2021/08/13 10:03:13;;;;;;;1999.90;999.90;;;;;;;30.93;34.70;96262.53;4987536;28;20229;-72
2021/08/13 10:05:41;;;;;;;1999.90;999.90;;;;;;;31.13;33.76;96266.06;4987604;28;20203;-72
2021/08/13 10:08:09;;;;;;;1999.90;999.90;;;;;;;31.29;33.67;96247.38;4987575;28;20254;-72
2021/08/13 10:10:38;;;;;;;1999.90;999.90;;;;;;;31.59;33.71;96249.94;4987516;28;20203;-72
2021/08/13 10:13:06;;;;;;;1999.90;999.90;;;;;;;31.76;32.05;96253.50;4987632;28;20199;-72
2021/08/13 10:15:36;;;;;;;1999.90;999.90;;;;;;;31.86;31.80;96257.91;4987431;28;20216;-72
2021/08/13 10:18:05;;;;;;;1999.90;999.90;;;;;;;31.86;31.51;96251.75;4987388;28;20211;-72
2021/08/13 10:20:35;;;;;;;1999.90;999.90;;;;;;;31.73;33.17;96256.25;4987050;28;20199;-71
2021/08/13 10:23:02;;;;;;;1999.90;999.90;;;;;;;31.60;32.68;96250.69;4987088;28;20203;-72
2021/08/13 10:25:30;;;;;;;1999.90;999.90;;;;;;;31.71;33.02;96255.88;4987039;28;20199;-71
2021/08/13 10:27:57;;;;;;;1999.90;999.90;;;;;;;31.53;32.89;96253.50;4987160;28;20262;-72
2021/08/13 10:30:25;;;;;;;1999.90;999.90;;;;;;;31.84;32.73;96254.09;4987258;28;20207;-71
2021/08/13 10:32:56;;;;;;;1999.90;999.90;;;;;;;32.00;34.04;96249.56;4987058;28;20203;-71
2021/08/13 10:35:27;;;;;;;1999.90;999.90;;;;;;;31.90;31.05;96250.53;4987324;28;20245;-71
2021/08/13 10:37:54;;;;;;;1999.90;999.90;;;;;;;32.01;31.30;96259.16;4986945;28;20195;-72
2021/08/13 10:40:22;;;;;;;1999.90;999.90;;;;;;;31.90;33.58;96252.44;4986889;28;20199;-70
2021/08/13 10:42:51;;;;;;;1999.90;999.90;;;;;;;31.86;32.39;96257.16;4986834;28;20206;-72
2021/08/13 10:45:24;;;;;;;1999.90;999.90;;;;;;;32.15;32.70;96257.38;4986819;28;20735;-72
2021/08/13 10:47:58;;;;;;;1999.90;999.90;;;;;;;32.23;31.02;96270.25;4986673;28;20211;-72
2021/08/13 10:50:26;;;;;;;1999.90;999.90;;;;;;;32.08;30.94;96260.94;4987211;28;20574;-71
2021/08/13 10:52:53;;;;;;;1999.90;999.90;;;;;;;32.09;30.31;96250.94;4989666;28;20259;-72
2021/08/13 10:55:53;;;;;;;1999.90;999.90;;;;;;;32.18;30.01;96251.91;4990120;28;20215;-72
2021/08/13 10:58:48;;;;;;;1999.90;999.90;;;;;;;32.43;30.31;96241.38;5010550;28;20233;-72
2021/08/13 11:01:17;;;;;;;1999.90;999.90;;;;;;;32.81;31.51;96238.28;4990368;28;20199;-71